Time;durP1;ratioP1;P1;durP2;ratioP2;P2;SDS_P1;SDS_P2;PMS_P1;PMS_P2;Temp;Humidity;BMP_temperature;BMP_pressure;BME280_temperature;BME280_humidity;BME280_pressure;Samples;Min_cycle;Max_cycle;Signal;HPM_P1;HPM_P2
2022/09/25 00:02:09;;;;;;;2.80;1.70;;;;;;;8.49;74.13;99288.07;25076;1316;3026647;-65
2022/09/25 00:04:38;;;;;;;4.10;2.00;;;;;;;8.21;75.17;99293.38;25066;1315;3052357;-63
2022/09/25 00:07:07;;;;;;;4.10;2.70;;;;;;;8.14;75.60;99293.23;25088;1315;3026577;-64
2022/09/25 00:09:36;;;;;;;3.50;1.70;;;;;;;8.01;76.46;99291.95;25047;1316;3058834;-64
2022/09/25 00:12:05;;;;;;;3.30;1.40;;;;;;;8.59;75.11;99295.15;25037;1315;3026565;-66
2022/09/25 00:14:35;;;;;;;4.00;1.90;;;;;;;8.82;73.94;99288.16;25061;1315;3055020;-64
2022/09/25 00:17:04;;;;;;;3.40;2.10;;;;;;;8.82;73.57;99285.91;25080;1316;3026631;-65
2022/09/25 00:19:51;;;;;;;6.80;2.80;;;;;;;8.77;73.43;99287.73;25033;1315;3053706;-64
2022/09/25 00:22:22;;;;;;;5.50;2.30;;;;;;;8.48;73.97;99289.34;25152;1315;3052335;-63
2022/09/25 00:24:51;;;;;;;3.20;2.20;;;;;;;8.15;75.28;99288.27;25094;1316;3026812;-64
2022/09/25 00:27:19;;;;;;;3.20;2.20;;;;;;;8.03;75.53;99290.86;25089;1316;3028450;-65
2022/09/25 00:29:48;;;;;;;4.00;2.10;;;;;;;7.92;76.86;99287.91;25019;1315;3054870;-64
2022/09/25 00:32:18;;;;;;;4.00;1.90;;;;;;;8.55;75.18;99290.13;25112;1315;3026919;-63
2022/09/25 00:34:49;;;;;;;3.30;1.90;;;;;;;8.92;73.49;99283.43;24979;1315;3027249;-66
2022/09/25 00:37:18;;;;;;;3.80;2.60;;;;;;;8.80;73.31;99288.60;25011;1315;3026551;-63
2022/09/25 00:39:47;;;;;;;3.30;2.20;;;;;;;8.58;73.60;99291.73;25075;1316;3026892;-62
2022/09/25 00:42:19;;;;;;;4.30;2.20;;;;;;;8.45;73.74;99289.33;25015;1315;3051383;-65
2022/09/25 00:44:59;;;;;;;3.20;1.90;;;;;;;8.27;74.37;99290.44;25088;1315;3026768;-65
2022/09/25 00:47:38;;;;;;;4.10;2.20;;;;;;;8.00;75.51;99285.95;25104;1315;3050975;-64
2022/09/25 00:50:16;;;;;;;2.30;1.40;;;;;;;7.77;76.95;99288.67;25009;1315;3071647;-64
2022/09/25 00:52:45;;;;;;;3.40;1.80;;;;;;;8.68;74.40;99282.46;25060;1315;3052303;-64
2022/09/25 00:55:14;;;;;;;3.40;1.80;;;;;;;8.97;73.07;99286.09;25074;1315;3026823;-65
2022/09/25 00:57:45;;;;;;;7.20;1.90;;;;;;;8.85;72.88;99284.34;25058;1316;3070571;-65
2022/09/25 01:00:15;;;;;;;5.00;2.00;;;;;;;8.77;72.68;99289.46;25097;1316;3026586;-64
2022/09/25 01:02:47;;;;;;;5.10;2.20;;;;;;;8.59;72.88;99285.94;25132;1316;3028767;-64
2022/09/25 01:05:18;;;;;;;3.60;2.30;;;;;;;8.32;73.70;99291.05;25077;1316;3026579;-65
2022/09/25 01:07:49;;;;;;;4.00;2.40;;;;;;;8.02;74.82;99292.96;25082;1315;3026067;-64
2022/09/25 01:10:19;;;;;;;4.40;1.80;;;;;;;7.92;75.60;99296.31;25034;1316;3027266;-64
2022/09/25 01:12:48;;;;;;;2.30;1.60;;;;;;;8.77;73.83;99291.75;25086;1315;3051357;-61
2022/09/25 01:15:19;;;;;;;2.30;1.80;;;;;;;8.87;72.60;99292.78;25083;1316;3027355;-65
2022/09/25 01:18:07;;;;;;;3.00;2.10;;;;;;;8.57;73.32;99294.09;25135;1316;3026705;-65
2022/09/25 01:20:55;;;;;;;3.60;1.80;;;;;;;8.53;73.05;99296.55;25108;1315;3052765;-65
2022/09/25 01:23:42;;;;;;;2.70;1.80;;;;;;;8.23;73.90;99292.92;25085;1316;3053286;-64
2022/09/25 01:26:46;;;;;;;5.10;1.60;;;;;;;7.98;74.69;99296.00;25075;1315;3068174;-63
2022/09/25 01:29:18;;;;;;;3.90;2.30;;;;;;;7.84;74.83;99293.04;25065;1316;3051677;-65
2022/09/25 01:32:05;;;;;;;2.70;1.70;;;;;;;7.90;75.05;99291.17;25073;1316;3026650;-64
2022/09/25 01:34:51;;;;;;;2.40;1.80;;;;;;;8.56;74.05;99290.32;25109;1316;3054956;-65
2022/09/25 01:37:36;;;;;;;3.20;1.90;;;;;;;8.62;73.23;99286.64;25109;1316;3055892;-64
2022/09/25 01:40:21;;;;;;;4.10;2.30;;;;;;;8.50;72.74;99286.41;25068;1316;3051916;-63
2022/09/25 01:43:13;;;;;;;3.50;1.80;;;;;;;8.19;73.82;99286.83;25028;1316;3053320;-63
2022/09/25 01:45:47;;;;;;;4.80;2.40;;;;;;;8.05;73.99;99283.73;25074;1316;3053727;-63
2022/09/25 01:48:18;;;;;;;2.90;2.10;;;;;;;7.90;74.25;99284.69;25055;1315;3071875;-64
2022/09/25 01:50:55;;;;;;;2.30;1.80;;;;;;;7.81;74.85;99287.28;25080;1316;3026236;-63
2022/09/25 01:53:33;;;;;;;7.70;2.40;;;;;;;8.49;74.48;99286.10;25054;1316;3054687;-65
2022/09/25 01:56:31;;;;;;;4.60;1.80;;;;;;;8.71;72.51;99287.71;25105;1316;3055389;-64
2022/09/25 01:59:07;;;;;;;2.60;2.10;;;;;;;8.47;72.76;99288.48;25045;1316;3059734;-62
2022/09/25 02:01:40;;;;;;;6.70;2.40;;;;;;;8.22;73.36;99291.73;25070;1316;3050988;-63
2022/09/25 02:04:21;;;;;;;5.30;2.00;;;;;;;8.09;73.58;99288.08;25092;1318;3026750;-63
2022/09/25 02:06:50;;;;;;;4.00;2.30;;;;;;;7.94;73.91;99295.30;25071;1316;3053975;-64
2022/09/25 02:09:32;;;;;;;3.60;2.30;;;;;;;7.74;74.66;99297.55;25064;1316;3026881;-64
2022/09/25 02:12:06;;;;;;;2.30;1.40;;;;;;;7.67;75.55;99293.08;25079;1316;3051616;-64
2022/09/25 02:14:56;;;;;;;;;;;;;;;8.30;74.76;99293.41;25018;1316;3051171;-61
2022/09/25 02:20:33;;;;;;;2.70;1.90;;;;;;;8.57;72.09;99293.58;25060;1316;3051805;-64
2022/09/25 02:23:17;;;;;;;3.20;1.80;;;;;;;8.27;72.90;99294.08;25102;1316;3055217;-62
2022/09/25 02:25:59;;;;;;;3.40;1.90;;;;;;;8.07;73.24;99296.55;25102;1316;3052941;-64
2022/09/25 02:28:28;;;;;;;3.30;2.20;;;;;;;7.72;74.58;99293.30;25024;1316;3058729;-62
2022/09/25 02:30:58;;;;;;;2.80;2.10;;;;;;;7.60;74.86;99299.49;25063;1316;3026558;-65
2022/09/25 02:33:28;;;;;;;2.10;1.60;;;;;;;7.45;75.89;99293.31;25055;1316;3054769;-62
2022/09/25 02:35:58;;;;;;;2.00;1.50;;;;;;;8.10;75.24;99292.39;25072;1316;3026811;-63
2022/09/25 02:38:27;;;;;;;2.60;1.80;;;;;;;8.51;73.55;99297.86;25134;1316;3026417;-65
2022/09/25 02:41:20;;;;;;;2.80;1.70;;;;;;;8.71;72.21;99300.64;25032;1316;3027632;-63
2022/09/25 02:44:13;;;;;;;2.60;1.70;;;;;;;8.33;72.74;99295.72;25086;1316;3051349;-63
2022/09/25 02:46:58;;;;;;;3.50;1.70;;;;;;;8.02;73.38;99297.70;25058;1316;3071210;-62
2022/09/25 02:49:36;;;;;;;3.40;2.10;;;;;;;7.83;73.93;99304.27;25064;1315;3049270;-64
2022/09/25 02:52:15;;;;;;;5.20;2.20;;;;;;;7.55;75.07;99299.77;25097;1315;3052408;-65
2022/09/25 02:54:46;;;;;;;3.70;1.70;;;;;;;7.32;76.69;99310.34;25036;1316;3055187;-64
2022/09/25 02:57:35;;;;;;;4.10;1.70;;;;;;;8.30;74.32;99310.36;25035;1316;3026486;-63
2022/09/25 03:00:06;;;;;;;2.20;1.30;;;;;;;8.71;72.01;99310.61;25091;1316;3052757;-64
2022/09/25 03:02:35;;;;;;;4.20;1.40;;;;;;;8.52;71.84;99306.40;25021;1316;3026685;-64
2022/09/25 03:05:06;;;;;;;4.20;2.10;;;;;;;8.20;72.63;99311.37;24990;1319;3026591;-66
2022/09/25 03:08:36;;;;;;;7.10;2.20;;;;;;;7.81;74.14;99309.08;25067;1315;3050702;-65
2022/09/25 03:10:24;;;;;;;2.00;1.50;;;;;;;7.60;74.86;99315.70;25036;1316;3055092;-66
2022/09/25 03:12:53;;;;;;;2.90;1.90;;;;;;;7.40;75.51;99323.15;25083;1316;3026744;-64
2022/09/25 03:15:23;;;;;;;2.50;1.60;;;;;;;7.43;75.94;99324.40;25065;1317;3051260;-66
2022/09/25 03:17:52;;;;;;;2.60;1.50;;;;;;;8.02;74.56;99319.68;25131;1316;3026612;-64
2022/09/25 03:20:21;;;;;;;4.50;2.20;;;;;;;8.34;73.22;99330.05;25083;1316;3027016;-65
2022/09/25 03:22:50;;;;;;;2.90;1.80;;;;;;;8.13;73.18;99327.48;25023;1316;3051718;-65
2022/09/25 03:25:21;;;;;;;5.00;2.10;;;;;;;7.85;73.92;99334.68;25091;1316;3026989;-65
2022/09/25 03:27:50;;;;;;;2.80;1.90;;;;;;;7.59;74.80;99333.73;25032;1316;3028498;-64
2022/09/25 03:30:19;;;;;;;3.20;1.70;;;;;;;7.27;75.96;99335.10;25063;1315;3026426;-64
2022/09/25 03:32:47;;;;;;;2.00;1.20;;;;;;;7.16;76.72;99336.01;25024;1316;3053146;-64
2022/09/25 03:35:16;;;;;;;2.50;1.30;;;;;;;7.81;75.54;99340.65;25113;1316;3026420;-64
2022/09/25 03:37:46;;;;;;;2.30;1.50;;;;;;;8.04;74.32;99338.39;25031;1316;3052337;-64
2022/09/25 03:40:15;;;;;;;3.90;1.90;;;;;;;7.98;74.05;99341.83;25145;1316;3026447;-65
2022/09/25 03:42:44;;;;;;;2.80;1.90;;;;;;;7.65;74.82;99349.30;25065;1315;3056039;-64
2022/09/25 03:45:13;;;;;;;6.60;2.00;;;;;;;7.61;74.70;99337.65;25111;1316;3028527;-63
2022/09/25 03:47:42;;;;;;;4.60;2.20;;;;;;;7.46;75.14;99347.25;25053;1316;3051622;-62
2022/09/25 03:50:11;;;;;;;2.10;1.50;;;;;;;7.23;75.92;99347.01;25065;1315;3026378;-63
2022/09/25 03:52:40;;;;;;;2.40;1.30;;;;;;;7.49;76.11;99345.70;24995;1316;3054000;-62
2022/09/25 03:55:10;;;;;;;4.70;1.80;;;;;;;7.92;74.63;99347.40;25076;1315;3026614;-63
2022/09/25 03:57:42;;;;;;;3.50;2.40;;;;;;;7.80;74.82;99349.23;25113;1316;3052163;-64
2022/09/25 04:00:12;;;;;;;4.00;2.10;;;;;;;7.63;74.74;99348.48;25091;1315;3026243;-64
2022/09/25 04:02:41;;;;;;;4.20;2.40;;;;;;;7.53;75.20;99348.16;25038;1316;3069951;-61
2022/09/25 04:05:10;;;;;;;2.80;2.10;;;;;;;7.45;75.06;99347.84;25062;1316;3026664;-61
2022/09/25 04:07:40;;;;;;;3.40;1.70;;;;;;;7.38;75.92;99350.45;25047;1316;3052455;-64
2022/09/25 04:10:10;;;;;;;3.90;1.80;;;;;;;7.99;74.79;99350.70;24990;1319;3025984;-64
2022/09/25 04:12:42;;;;;;;2.40;2.00;;;;;;;8.26;73.20;99352.80;25014;1316;3026563;-63
2022/09/25 04:15:11;;;;;;;3.50;2.10;;;;;;;7.85;73.91;99353.13;25129;1315;3027075;-63
2022/09/25 04:17:41;;;;;;;5.50;2.40;;;;;;;7.78;74.23;99348.95;25029;1316;3026796;-63
2022/09/25 04:20:10;;;;;;;6.40;2.20;;;;;;;7.60;74.85;99355.30;25046;1316;3026691;-63
2022/09/25 04:22:39;;;;;;;3.10;1.60;;;;;;;7.47;75.25;99361.84;25094;1316;3051149;-65
2022/09/25 04:25:09;;;;;;;3.50;1.70;;;;;;;7.49;76.41;99364.52;25026;1316;3026563;-62
2022/09/25 04:27:38;;;;;;;4.50;2.20;;;;;;;7.86;75.01;99368.11;25116;1315;3048529;-66
2022/09/25 04:30:08;;;;;;;3.40;2.10;;;;;;;7.96;74.84;99370.91;25036;1315;3026535;-64
2022/09/25 04:35:25;;;;;;;5.20;2.40;;;;;;;7.76;74.78;99372.61;25052;1316;3050949;-63
2022/09/25 04:37:54;;;;;;;4.10;2.50;;;;;;;7.57;75.40;99376.01;25128;1315;3026272;-62
2022/09/25 04:40:22;;;;;;;3.10;2.00;;;;;;;7.37;76.21;99370.55;25077;1315;3070459;-63
2022/09/25 04:42:58;;;;;;;3.30;1.50;;;;;;;7.26;77.22;99368.11;25054;1315;3029021;-63
2022/09/25 04:45:27;;;;;;;3.40;1.80;;;;;;;8.24;75.10;99375.75;25205;1316;3051814;-65
2022/09/25 04:47:58;;;;;;;2.60;1.90;;;;;;;8.95;72.28;99379.30;25032;1315;3026378;-62
2022/09/25 04:50:27;;;;;;;4.40;2.00;;;;;;;8.59;72.50;99378.10;25048;1318;3027136;-62
2022/09/25 04:53:03;;;;;;;4.20;2.30;;;;;;;8.46;72.83;99370.92;25025;1316;3054861;-61
2022/09/25 04:55:32;;;;;;;5.50;2.60;;;;;;;8.24;73.56;99374.86;25096;1316;3026849;-65
2022/09/25 04:58:01;;;;;;;6.00;2.30;;;;;;;8.08;74.00;99374.14;25051;1315;3051405;-64
2022/09/25 05:00:31;;;;;;;3.10;2.20;;;;;;;7.91;74.89;99389.63;25026;1315;3026765;-63
2022/09/25 05:03:01;;;;;;;2.40;1.40;;;;;;;7.85;75.83;99392.57;25022;1315;3068046;-63
2022/09/25 05:05:31;;;;;;;2.90;2.10;;;;;;;8.56;73.46;99382.81;25121;1316;3026026;-62
2022/09/25 05:08:00;;;;;;;5.60;1.90;;;;;;;9.02;72.52;99379.98;25023;1315;3026429;-62
2022/09/25 05:10:31;;;;;;;3.00;2.30;;;;;;;8.93;71.98;99383.61;25058;1316;3070188;-65
2022/09/25 05:13:01;;;;;;;7.40;2.30;;;;;;;8.77;72.43;99385.18;25123;1316;3026984;-64
2022/09/25 05:15:32;;;;;;;4.00;2.40;;;;;;;8.67;72.85;99398.27;25097;1316;3026236;-64
2022/09/25 05:18:18;;;;;;;4.10;2.30;;;;;;;8.24;74.35;99396.34;25096;1315;3028346;-65
2022/09/25 05:20:48;;;;;;;6.00;2.30;;;;;;;8.03;75.76;99388.36;25117;1315;3057696;-65
2022/09/25 05:23:17;;;;;;;3.10;1.90;;;;;;;8.12;75.55;99396.74;25038;1316;3028848;-66
2022/09/25 05:25:54;;;;;;;3.50;2.50;;;;;;;8.86;73.74;99402.14;25050;1315;3026822;-62
2022/09/25 05:28:23;;;;;;;3.50;2.10;;;;;;;9.39;72.05;99399.21;25068;1315;3051855;-62
2022/09/25 05:30:53;;;;;;;3.90;2.20;;;;;;;9.35;71.19;99401.70;25038;1316;3026618;-66
2022/09/25 05:33:22;;;;;;;4.60;2.70;;;;;;;9.11;72.29;99397.31;25036;1315;3026449;-65
2022/09/25 05:35:51;;;;;;;3.60;2.30;;;;;;;9.06;71.84;99402.29;25062;1316;3026874;-64
2022/09/25 05:38:21;;;;;;;8.20;2.40;;;;;;;8.91;72.50;99404.16;24998;1315;3070504;-62
2022/09/25 05:40:51;;;;;;;3.50;2.30;;;;;;;8.67;73.57;99406.34;25062;1316;3026711;-65
2022/09/25 05:43:20;;;;;;;2.90;1.80;;;;;;;8.60;74.39;99408.79;25068;1315;3051075;-66
2022/09/25 05:45:54;;;;;;;3.60;2.30;;;;;;;9.33;73.03;99409.87;25019;1315;3026628;-63
2022/09/25 05:48:24;;;;;;;5.20;2.20;;;;;;;9.89;70.31;99405.30;24976;1315;3055351;-62
2022/09/25 05:50:54;;;;;;;3.20;2.10;;;;;;;9.68;70.34;99410.68;25072;1316;3026374;-66
2022/09/25 05:53:23;;;;;;;6.70;2.70;;;;;;;9.48;71.56;99417.05;25071;1315;3026912;-64
2022/09/25 05:55:56;;;;;;;4.00;2.80;;;;;;;9.47;71.52;99412.55;25065;1315;3026036;-64
2022/09/25 05:58:27;;;;;;;6.00;2.60;;;;;;;9.33;72.54;99424.75;25026;1316;3027721;-66
2022/09/25 06:01:00;;;;;;;5.50;2.40;;;;;;;9.39;72.36;99432.44;25065;1315;3026522;-66
2022/09/25 06:03:30;;;;;;;;;;;;;;;9.41;72.45;99437.24;25035;1315;3058488;-66
2022/09/25 06:05:59;;;;;;;3.00;2.30;;;;;;;9.88;72.04;99428.42;25044;1315;3026852;-64
2022/09/25 06:08:31;;;;;;;3.60;2.10;;;;;;;10.61;69.46;99427.25;25058;1316;3054080;-65
2022/09/25 06:11:04;;;;;;;3.90;2.50;;;;;;;10.56;69.00;99425.69;25076;1314;3027556;-66
2022/09/25 06:13:33;;;;;;;4.60;2.40;;;;;;;10.59;68.89;99437.39;25102;1315;3026434;-66
2022/09/25 06:16:04;;;;;;;6.20;2.80;;;;;;;10.41;68.99;99432.02;25125;1315;3026726;-66
2022/09/25 06:18:34;;;;;;;3.30;2.10;;;;;;;10.25;68.80;99429.08;25019;1316;3027554;-65
2022/09/25 06:21:04;;;;;;;3.60;2.50;;;;;;;10.24;68.63;99435.41;24959;1316;3026590;-65
2022/09/25 06:23:33;;;;;;;3.10;2.20;;;;;;;10.23;68.81;99437.76;25025;1315;3053654;-67
2022/09/25 06:26:04;;;;;;;3.90;2.60;;;;;;;10.32;68.82;99449.52;25020;1315;3026591;-65
2022/09/25 06:28:33;;;;;;;3.70;2.30;;;;;;;10.35;68.36;99438.83;25040;1315;3050242;-67
2022/09/25 06:31:02;;;;;;;2.70;1.80;;;;;;;10.37;68.90;99445.38;25165;1315;3028102;-66
2022/09/25 06:33:32;;;;;;;2.50;1.70;;;;;;;11.39;66.31;99454.48;24999;1315;3058732;-65
2022/09/25 06:36:04;;;;;;;5.20;1.90;;;;;;;11.92;63.31;99438.10;25039;1315;3026511;-65
2022/09/25 06:38:33;;;;;;;4.20;1.90;;;;;;;11.90;63.07;99441.71;25064;1315;3026978;-64
2022/09/25 06:41:02;;;;;;;5.20;2.20;;;;;;;11.71;63.50;99448.89;25046;1315;3026870;-64
2022/09/25 06:43:31;;;;;;;2.80;1.80;;;;;;;11.56;64.31;99437.27;25031;1316;3051113;-65
2022/09/25 06:46:02;;;;;;;3.80;2.00;;;;;;;11.45;64.65;99443.20;25092;1315;3026403;-65
2022/09/25 06:48:31;;;;;;;2.60;1.70;;;;;;;11.50;64.66;99448.33;25068;1315;3056268;-67
2022/09/25 06:51:00;;;;;;;3.50;2.20;;;;;;;11.52;65.15;99459.96;24986;1315;3026392;-63
2022/09/25 06:53:29;;;;;;;6.90;2.00;;;;;;;11.49;64.77;99459.47;25066;1315;3052176;-62
2022/09/25 06:55:58;;;;;;;3.40;2.10;;;;;;;11.55;64.52;99458.17;25008;1315;3026473;-65
2022/09/25 06:58:29;;;;;;;2.80;1.90;;;;;;;11.59;64.32;99454.95;25077;1316;3054633;-67
2022/09/25 07:00:58;;;;;;;3.20;1.80;;;;;;;11.60;63.45;99465.05;25156;1316;3026098;-67
2022/09/25 07:03:46;;;;;;;4.20;2.20;;;;;;;11.70;63.05;99460.92;25064;1315;3027015;-64
2022/09/25 07:06:17;;;;;;;3.70;1.90;;;;;;;11.78;63.03;99458.45;25078;1316;3055442;-64
2022/09/25 07:08:49;;;;;;;3.90;1.80;;;;;;;11.80;62.95;99469.77;25111;1316;3028292;-68
2022/09/25 07:11:21;;;;;;;2.90;1.90;;;;;;;11.88;62.79;99461.13;25130;1315;3056246;-65
2022/09/25 07:13:53;;;;;;;2.80;2.00;;;;;;;11.91;62.25;99449.55;25109;1316;3026446;-62
2022/09/25 07:16:24;;;;;;;2.70;1.90;;;;;;;12.00;62.66;99454.98;25169;1315;3027880;-64
2022/09/25 07:19:02;;;;;;;2.50;1.80;;;;;;;12.15;62.17;99458.34;25163;1315;3053613;-64
2022/09/25 07:21:31;;;;;;;2.50;1.50;;;;;;;12.12;60.85;99462.57;25053;1315;3070858;-64
2022/09/25 07:24:00;;;;;;;4.90;1.90;;;;;;;12.11;60.72;99458.44;25081;1315;3028514;-63
2022/09/25 07:26:32;;;;;;;2.60;1.90;;;;;;;12.16;60.85;99451.27;25039;1315;3054844;-65
2022/09/25 07:29:03;;;;;;;2.30;1.50;;;;;;;12.20;60.69;99461.33;25127;1316;3029577;-62
2022/09/25 07:31:33;;;;;;;3.30;2.10;;;;;;;12.35;60.45;99451.36;25112;1315;3028567;-65
2022/09/25 07:34:07;;;;;;;2.30;1.70;;;;;;;12.41;59.97;99454.27;25132;1316;3026531;-65
2022/09/25 07:36:38;;;;;;;2.30;1.70;;;;;;;12.65;59.86;99452.49;25148;1316;3055543;-69
2022/09/25 07:39:08;;;;;;;4.00;1.90;;;;;;;12.54;58.78;99450.78;25140;1315;3026201;-68
2022/09/25 07:41:37;;;;;;;3.60;1.80;;;;;;;12.56;58.40;99452.20;25103;1316;3026886;-67
2022/09/25 07:44:06;;;;;;;2.80;1.90;;;;;;;12.69;58.91;99452.72;25148;1316;3026371;-65
2022/09/25 07:46:35;;;;;;;2.60;1.60;;;;;;;12.88;57.80;99449.27;25140;1316;3027116;-64
2022/09/25 07:49:05;;;;;;;1.90;1.40;;;;;;;12.91;57.80;99443.98;25064;1315;3051992;-66
2022/09/25 07:51:34;;;;;;;4.80;1.50;;;;;;;13.05;57.61;99442.48;25010;1315;3027050;-66
2022/09/25 07:54:03;;;;;;;6.20;1.60;;;;;;;13.13;57.68;99442.48;25084;1316;3055705;-65
2022/09/25 07:56:33;;;;;;;3.20;2.00;;;;;;;13.12;56.69;99452.55;25047;1316;3028592;-64
2022/09/25 07:59:03;;;;;;;4.00;2.00;;;;;;;13.07;55.89;99449.86;25058;1316;3027055;-64
2022/09/25 08:01:32;;;;;;;5.30;1.90;;;;;;;13.19;55.09;99454.16;25075;1316;3027149;-64
2022/09/25 08:04:01;;;;;;;2.80;1.90;;;;;;;13.07;55.14;99455.71;25046;1315;3026520;-66
2022/09/25 08:06:33;;;;;;;3.70;1.50;;;;;;;13.22;55.03;99449.88;25127;1315;3054904;-67
2022/09/25 08:09:02;;;;;;;3.80;1.70;;;;;;;13.22;55.39;99447.95;25168;1314;3026565;-63
2022/09/25 08:11:32;;;;;;;3.20;1.90;;;;;;;13.50;55.58;99442.23;25041;1316;3026496;-64
2022/09/25 08:14:02;;;;;;;4.20;1.80;;;;;;;13.52;54.92;99444.78;25119;1316;3027087;-64
2022/09/25 08:16:56;;;;;;;4.40;1.70;;;;;;;13.58;54.15;99443.47;25096;1315;3053109;-67
2022/09/25 08:19:26;;;;;;;3.50;2.30;;;;;;;13.68;53.69;99457.46;24991;1316;3026478;-66
2022/09/25 08:21:55;;;;;;;4.50;1.90;;;;;;;13.73;53.80;99440.42;25098;1315;3026921;-68
2022/09/25 08:24:25;;;;;;;2.80;1.50;;;;;;;13.85;52.42;99441.30;25112;1315;3027625;-66
2022/09/25 08:26:55;;;;;;;3.90;1.50;;;;;;;13.89;52.04;99436.95;25113;1315;3026418;-64
2022/09/25 08:29:24;;;;;;;2.50;1.50;;;;;;;14.06;51.87;99438.61;25108;1315;3026460;-66
2022/09/25 08:31:54;;;;;;;7.50;1.70;;;;;;;14.06;50.95;99444.30;24976;1315;3051044;-65
2022/09/25 08:34:23;;;;;;;2.10;1.60;;;;;;;14.16;50.82;99434.78;25117;1315;3026213;-64
2022/09/25 08:36:53;;;;;;;3.10;1.80;;;;;;;14.17;50.27;99438.55;25110;1313;3055249;-66
2022/09/25 08:39:25;;;;;;;3.80;1.90;;;;;;;14.05;50.38;99434.55;25115;1313;3026466;-66
2022/09/25 08:41:54;;;;;;;2.90;1.80;;;;;;;14.10;50.76;99435.02;25044;1313;3026230;-65
2022/09/25 08:44:34;;;;;;;3.50;1.70;;;;;;;14.13;49.76;99429.85;25082;1315;3059249;-67
2022/09/25 08:50:07;;;;;;;5.70;1.50;;;;;;;14.32;49.34;99425.08;25023;1316;3053099;-63
2022/09/25 08:52:40;;;;;;;2.70;1.50;;;;;;;14.31;49.61;99438.39;25164;1313;3051471;-67
2022/09/25 08:56:13;;;;;;;4.20;1.80;;;;;;;14.37;49.67;99428.88;25118;1313;3029406;-65
2022/09/25 08:58:24;;;;;;;2.90;1.70;;;;;;;14.36;49.64;99431.80;25082;1312;3051584;-66
2022/09/25 09:01:00;;;;;;;2.40;1.60;;;;;;;14.56;49.38;99429.21;25107;1312;3052522;-64
2022/09/25 09:03:29;;;;;;;2.70;1.50;;;;;;;14.63;48.82;99430.30;25061;1312;3052053;-64
2022/09/25 09:06:06;;;;;;;3.10;1.80;;;;;;;14.66;47.72;99430.05;25149;1315;3026732;-66
2022/09/25 09:08:36;;;;;;;5.10;1.60;;;;;;;14.63;47.51;99430.44;25019;1312;3049680;-66
2022/09/25 09:11:23;;;;;;;4.90;2.40;;;;;;;14.57;47.02;99431.63;25080;1315;3026788;-66
2022/09/25 09:14:15;;;;;;;4.30;1.60;;;;;;;14.78;47.58;99424.91;25112;1312;3051226;-66
2022/09/25 09:16:46;;;;;;;2.90;1.50;;;;;;;14.85;47.46;99428.43;25113;1313;3068209;-64
2022/09/25 09:19:15;;;;;;;3.50;1.50;;;;;;;14.93;47.48;99427.81;25162;1313;3026644;-63
2022/09/25 09:21:47;;;;;;;2.60;1.40;;;;;;;15.18;47.44;99423.46;25077;1312;3026515;-65
2022/09/25 09:24:28;;;;;;;3.00;1.50;;;;;;;15.16;46.75;99440.60;24979;1316;3070370;-66
2022/09/25 09:27:24;;;;;;;3.80;1.60;;;;;;;15.19;46.99;99437.15;25123;1315;3050923;-66
2022/09/25 09:30:16;;;;;;;2.60;1.40;;;;;;;14.99;46.83;99434.92;25279;1313;3055876;-65
2022/09/25 09:33:08;;;;;;;2.50;1.60;;;;;;;14.95;47.18;99424.42;25143;1312;3055247;-67
2022/09/25 09:35:58;;;;;;;4.70;1.60;;;;;;;15.01;47.45;99436.86;25151;1315;3056993;-65
2022/09/25 09:38:30;;;;;;;2.10;1.30;;;;;;;15.11;46.81;99429.35;25083;1312;3049800;-64
2022/09/25 09:41:14;;;;;;;2.80;1.80;;;;;;;15.22;46.42;99430.22;25121;1313;3028593;-63
2022/09/25 09:44:11;;;;;;;4.70;1.10;;;;;;;15.23;45.42;99432.48;24978;1316;3053871;-66
2022/09/25 09:47:27;;;;;;;2.20;1.40;;;;;;;15.28;45.57;99426.93;25085;1312;3068733;-63
2022/09/25 09:50:14;;;;;;;2.00;1.00;;;;;;;15.30;45.45;99444.73;25038;1313;3049325;-63
2022/09/25 09:52:43;;;;;;;1.60;1.20;;;;;;;15.01;46.23;99416.77;25136;1312;3052365;-65
2022/09/25 09:55:22;;;;;;;1.70;1.10;;;;;;;15.13;46.44;99426.70;25151;1312;3026498;-64
2022/09/25 09:57:53;;;;;;;3.60;1.30;;;;;;;15.25;45.84;99424.68;25112;1312;3056597;-64
2022/09/25 10:00:23;;;;;;;1.30;1.10;;;;;;;15.38;45.82;99423.12;24347;1312;4477123;-64
2022/09/25 10:03:18;;;;;;;2.10;1.20;;;;;;;15.34;45.75;99415.67;24999;1313;3026047;-66
2022/09/25 10:05:48;;;;;;;2.20;1.30;;;;;;;15.26;46.28;99430.80;25068;1315;3051802;-65
2022/09/25 10:08:18;;;;;;;3.90;1.60;;;;;;;15.29;46.57;99419.45;25158;1312;3026756;-66
2022/09/25 10:10:54;;;;;;;1.40;1.00;;;;;;;15.29;46.06;99417.15;25110;1312;3028884;-64
2022/09/25 10:13:32;;;;;;;5.60;1.60;;;;;;;15.32;45.61;99403.10;25019;1313;3053844;-64
2022/09/25 10:16:07;;;;;;;4.40;1.60;;;;;;;15.62;44.95;99418.02;25155;1313;3052458;-65
2022/09/25 10:18:40;;;;;;;2.40;0.90;;;;;;;15.71;44.14;99408.59;25143;1312;3059157;-64
2022/09/25 10:21:15;;;;;;;5.60;1.00;;;;;;;15.75;43.13;99435.46;25058;1313;3028604;-63
2022/09/25 10:23:54;;;;;;;2.80;1.30;;;;;;;15.71;43.08;99425.88;25149;1315;3052746;-65
2022/09/25 10:26:30;;;;;;;1.90;1.20;;;;;;;15.76;43.68;99414.56;25016;1315;3051927;-67
2022/09/25 10:29:01;;;;;;;2.50;1.00;;;;;;;15.80;43.53;99417.58;25101;1312;3069259;-64
2022/09/25 10:31:32;;;;;;;2.40;1.20;;;;;;;15.91;43.40;99409.45;25183;1312;3028029;-65
2022/09/25 10:34:02;;;;;;;3.00;1.50;;;;;;;15.96;43.32;99422.79;25141;1315;3027542;-66
2022/09/25 10:36:39;;;;;;;3.80;1.00;;;;;;;15.72;44.25;99411.71;25090;1315;3027061;-65
2022/09/25 10:39:25;;;;;;;2.00;1.30;;;;;;;15.63;43.95;99415.95;25061;1315;3059060;-66
2022/09/25 10:41:54;;;;;;;2.00;1.10;;;;;;;15.78;43.10;99416.70;25125;1313;3050887;-68
2022/09/25 10:44:32;;;;;;;1.60;1.10;;;;;;;15.92;42.04;99417.83;25035;1315;3026845;-66
2022/09/25 10:50:21;;;;;;;1.80;1.10;;;;;;;15.77;42.04;99401.25;25143;1313;3070913;-65
2022/09/25 10:52:52;;;;;;;1.40;1.00;;;;;;;15.75;42.30;99393.11;25145;1315;3049329;-65
2022/09/25 10:55:29;;;;;;;4.00;1.20;;;;;;;16.00;41.42;99398.77;25132;1315;3026530;-65
2022/09/25 10:58:10;;;;;;;2.50;1.00;;;;;;;16.10;40.65;99391.09;25076;1315;3051900;-64
2022/09/25 11:00:58;;;;;;;1.90;1.10;;;;;;;16.42;41.29;99401.22;25054;1315;3058856;-65
2022/09/25 11:03:38;;;;;;;2.50;1.10;;;;;;;16.60;41.24;99407.68;25084;1312;3052588;-65
2022/09/25 11:06:21;;;;;;;1.20;0.80;;;;;;;16.62;40.52;99401.11;25209;1315;3055931;-66
2022/09/25 11:09:16;;;;;;;1.50;1.00;;;;;;;16.54;39.28;99406.20;25140;1315;3052775;-66
2022/09/25 11:11:48;;;;;;;2.20;1.10;;;;;;;16.74;38.65;99402.05;25153;1313;3069437;-64
2022/09/25 11:14:31;;;;;;;1.60;0.90;;;;;;;16.64;38.87;99408.18;25100;1315;3051951;-66
2022/09/25 11:17:04;;;;;;;2.40;1.00;;;;;;;16.70;38.76;99422.03;25078;1313;3052738;-65
2022/09/25 11:19:36;;;;;;;3.00;1.10;;;;;;;16.50;38.36;99408.14;25117;1315;3053265;-63
2022/09/25 11:22:32;;;;;;;1.70;1.00;;;;;;;16.35;38.51;99411.37;25139;1312;3026914;-66
2022/09/25 11:25:17;;;;;;;1.30;0.90;;;;;;;16.32;38.54;99415.73;25150;1313;3050274;-65
2022/09/25 11:28:06;;;;;;;1.60;1.10;;;;;;;16.13;38.84;99407.78;25148;1312;3057920;-68
2022/09/25 11:30:45;;;;;;;1.60;1.00;;;;;;;16.02;39.49;99406.41;25126;1315;3053952;-65
2022/09/25 11:33:23;;;;;;;2.90;1.10;;;;;;;16.00;39.54;99404.77;25143;1312;3071044;-65
2022/09/25 11:35:57;;;;;;;1.90;1.30;;;;;;;16.18;39.40;99406.09;25092;1312;3049793;-68
2022/09/25 11:41:31;;;;;;;2.00;1.30;;;;;;;16.82;38.67;99404.48;25164;1313;3052568;-66
2022/09/25 11:44:14;;;;;;;3.40;1.00;;;;;;;16.85;37.88;99410.85;25169;1312;3059481;-65
2022/09/25 11:47:03;;;;;;;2.40;1.20;;;;;;;16.86;38.18;99405.45;25169;1315;3049449;-70
2022/09/25 11:49:35;;;;;;;5.00;0.80;;;;;;;16.79;37.09;99422.09;25155;1315;3055647;-69
2022/09/25 11:52:41;;;;;;;2.90;1.10;;;;;;;16.68;37.65;99397.27;25137;1312;3026541;-66
2022/09/25 11:55:35;;;;;;;2.40;0.90;;;;;;;16.95;37.79;99404.15;25102;1312;3068719;-69
2022/09/25 11:58:49;;;;;;;4.50;1.00;;;;;;;16.80;37.08;99418.89;25115;1312;3051529;-65
2022/09/25 12:01:29;;;;;;;7.20;1.20;;;;;;;16.47;38.29;99407.21;24991;1318;3055146;-66
2022/09/25 12:04:17;;;;;;;2.80;1.00;;;;;;;16.61;38.10;99403.00;25022;1318;3052991;-67
2022/09/25 12:07:04;;;;;;;2.60;1.20;;;;;;;16.53;38.12;99409.86;25106;1313;3054860;-66
2022/09/25 12:09:41;;;;;;;1.90;1.00;;;;;;;16.37;38.24;99423.21;25089;1312;3052540;-68
2022/09/25 12:12:23;;;;;;;2.50;1.00;;;;;;;16.58;38.05;99398.96;25115;1312;3053553;-65